Terminal Aerodrome Forecast
Issued by NWS

Current Version | Previous Version | Graphics & Text | Print | Product List | Glossary On
Versions: 1 2 3 4 5 6 7 8 9 10 11 12 13 14 15 16 17 18 19 20 21
681
FTUS41 KPBZ 271139
TAFMGW
TAF
KMGW 271139Z 2712/2812 15003KT P6SM -SHRA OVC025
      TEMPO 2712/2713 VRB10G20KT 1SM -TSRA OVC025CB
     FM271400 19004KT P6SM OVC025
     FM272000 31004KT P6SM BKN050 PROB30 2721/2724 P6SM TS BKN025CB
     FM280600 00000KT P6SM BKN015=

USA.gov is the U.S. government's official web portal to all federal, state and local government web resources and services.